Lochmere, New Hampshire
Current Conditions -  °F | °C
As of 8:35 AM on Monday 24 Nov 2014 (Local Time) from KLCI Reporting Station
Overcast Overcast  
Wind Chill: 55°   Ceiling: 1300
Heat Index: 55°   Visibility: 9mi
Dew Point: 52°   Wind: 14mph
Humidity: 88%   Direction: 140°SE
Pressure: 29.71"   Gusts: 20mph
Location:  43.47°N, 71.53°W
Report Text: KLCI 241335Z AUTO 14012G17KT 100V200 9SM BKN013 BKN020 OVC033 13/11 A2971 RMK AO1 P0002
Loading
Personal Weather Stations






























Interactive Weather Map New forecast layout! Learn more

10-Day Weather Forecast

Advertisements
Track Severe Weather on mobile